sensor_id;sensor_type;location;lat;lon;timestamp;pressure;altitude;pressure_sealevel;temperature;humidity
68793;BME280;55778;54.346;10.210;2023-05-21T00:00:43;101885.16;;;10.77;89.85
68793;BME280;55778;54.346;10.210;2023-05-21T00:03:08;101881.81;;;10.74;90.68
68793;BME280;55778;54.346;10.210;2023-05-21T00:05:41;101887.16;;;10.75;90.83
68793;BME280;55778;54.346;10.210;2023-05-21T00:08:07;101876.72;;;10.69;91.03
68793;BME280;55778;54.346;10.210;2023-05-21T00:10:32;101881.31;;;10.69;91.23
68793;BME280;55778;54.346;10.210;2023-05-21T00:12:58;101869.91;;;10.75;91.34
68793;BME280;55778;54.346;10.210;2023-05-21T00:15:23;101871.41;;;10.79;90.83
68793;BME280;55778;54.346;10.210;2023-05-21T00:17:49;101872.16;;;10.81;90.61
68793;BME280;55778;54.346;10.210;2023-05-21T00:20:14;101867.34;;;10.84;90.35
68793;BME280;55778;54.346;10.210;2023-05-21T00:22:41;101870.44;;;10.80;90.68
68793;BME280;55778;54.346;10.210;2023-05-21T00:25:07;101873.06;;;10.81;90.84
68793;BME280;55778;54.346;10.210;2023-05-21T00:27:33;101875.91;;;10.80;91.12
68793;BME280;55778;54.346;10.210;2023-05-21T00:29:58;101878.63;;;10.80;90.73
68793;BME280;55778;54.346;10.210;2023-05-21T00:32:23;101868.31;;;10.83;90.78
68793;BME280;55778;54.346;10.210;2023-05-21T00:34:49;101867.47;;;10.83;90.79
68793;BME280;55778;54.346;10.210;2023-05-21T00:37:14;101864.63;;;10.84;91.12
68793;BME280;55778;54.346;10.210;2023-05-21T00:39:40;101862.88;;;10.72;91.03
68793;BME280;55778;54.346;10.210;2023-05-21T00:42:06;101865.34;;;10.75;91.26
68793;BME280;55778;54.346;10.210;2023-05-21T00:44:31;101853.16;;;10.68;91.84
68793;BME280;55778;54.346;10.210;2023-05-21T00:47:03;101859.13;;;10.73;91.57
68793;BME280;55778;54.346;10.210;2023-05-21T00:49:30;101861.22;;;10.70;92.14
68793;BME280;55778;54.346;10.210;2023-05-21T00:51:56;101856.53;;;10.61;92.87
68793;BME280;55778;54.346;10.210;2023-05-21T00:54:22;101851.78;;;10.52;93.28
68793;BME280;55778;54.346;10.210;2023-05-21T00:56:49;101851.53;;;10.55;93.53
68793;BME280;55778;54.346;10.210;2023-05-21T00:59:15;101857.69;;;10.46;94.23
68793;BME280;55778;54.346;10.210;2023-05-21T01:01:43;101850.13;;;10.49;94.54
68793;BME280;55778;54.346;10.210;2023-05-21T01:04:10;101845.03;;;10.45;94.72
68793;BME280;55778;54.346;10.210;2023-05-21T01:06:35;101842.78;;;10.39;95.53
68793;BME280;55778;54.346;10.210;2023-05-21T01:09:02;101834.78;;;10.48;95.32
68793;BME280;55778;54.346;10.210;2023-05-21T01:11:58;101834.03;;;10.46;96.12
68793;BME280;55778;54.346;10.210;2023-05-21T01:14:25;101841.34;;;10.46;96.43
68793;BME280;55778;54.346;10.210;2023-05-21T01:16:51;101839.59;;;10.45;96.87
68793;BME280;55778;54.346;10.210;2023-05-21T01:19:21;101832.78;;;10.39;96.99
68793;BME280;55778;54.346;10.210;2023-05-21T01:21:52;101838.16;;;10.28;97.52
68793;BME280;55778;54.346;10.210;2023-05-21T01:24:20;101831.28;;;10.35;97.09
68793;BME280;55778;54.346;10.210;2023-05-21T01:26:46;101833.06;;;10.47;96.53
68793;BME280;55778;54.346;10.210;2023-05-21T01:29:12;101836.03;;;10.44;96.68
68793;BME280;55778;54.346;10.210;2023-05-21T01:34:22;101826.69;;;10.36;96.63
68793;BME280;55778;54.346;10.210;2023-05-21T01:36:54;101817.19;;;10.52;96.51
68793;BME280;55778;54.346;10.210;2023-05-21T01:39:26;101820.03;;;10.51;96.05
68793;BME280;55778;54.346;10.210;2023-05-21T01:41:55;101821.81;;;10.52;96.08
68793;BME280;55778;54.346;10.210;2023-05-21T01:44:21;101827.00;;;10.55;95.97
68793;BME280;55778;54.346;10.210;2023-05-21T01:46:52;101824.53;;;10.52;96.50
68793;BME280;55778;54.346;10.210;2023-05-21T01:49:19;101816.59;;;10.49;96.85
68793;BME280;55778;54.346;10.210;2023-05-21T01:51:46;101819.81;;;10.54;96.48
68793;BME280;55778;54.346;10.210;2023-05-21T01:54:12;101815.06;;;10.45;96.89
68793;BME280;55778;54.346;10.210;2023-05-21T01:56:38;101819.81;;;10.54;97.28
68793;BME280;55778;54.346;10.210;2023-05-21T01:59:03;101820.75;;;10.42;97.89
68793;BME280;55778;54.346;10.210;2023-05-21T02:01:29;101816.72;;;10.47;98.08
68793;BME280;55778;54.346;10.210;2023-05-21T02:03:55;101808.00;;;10.42;97.84
68793;BME280;55778;54.346;10.210;2023-05-21T02:06:21;101814.34;;;10.43;98.11
68793;BME280;55778;54.346;10.210;2023-05-21T02:08:47;101815.72;;;10.48;97.97
68793;BME280;55778;54.346;10.210;2023-05-21T02:11:12;101815.59;;;10.50;97.94
68793;BME280;55778;54.346;10.210;2023-05-21T02:13:38;101815.19;;;10.43;97.81
68793;BME280;55778;54.346;10.210;2023-05-21T02:16:07;101813.47;;;10.42;97.97
68793;BME280;55778;54.346;10.210;2023-05-21T02:18:36;101806.41;;;10.40;98.43
68793;BME280;55778;54.346;10.210;2023-05-21T02:21:02;101815.91;;;10.34;98.90
68793;BME280;55778;54.346;10.210;2023-05-21T02:23:27;101810.72;;;10.42;98.53
68793;BME280;55778;54.346;10.210;2023-05-21T02:25:53;101806.13;;;10.32;99.53
68793;BME280;55778;54.346;10.210;2023-05-21T02:28:18;101808.06;;;10.30;99.56
68793;BME280;55778;54.346;10.210;2023-05-21T02:30:45;101800.66;;;10.32;100.00
68793;BME280;55778;54.346;10.210;2023-05-21T02:33:10;101803.03;;;10.36;99.90
68793;BME280;55778;54.346;10.210;2023-05-21T02:35:38;101806.75;;;10.35;100.00
68793;BME280;55778;54.346;10.210;2023-05-21T02:38:04;101801.13;;;10.26;100.00
68793;BME280;55778;54.346;10.210;2023-05-21T02:40:29;101800.28;;;10.25;100.00
68793;BME280;55778;54.346;10.210;2023-05-21T02:42:54;101801.50;;;10.21;100.00
68793;BME280;55778;54.346;10.210;2023-05-21T02:45:20;101794.84;;;10.25;100.00
68793;BME280;55778;54.346;10.210;2023-05-21T02:47:45;101794.56;;;10.28;100.00
68793;BME280;55778;54.346;10.210;2023-05-21T02:50:12;101802.09;;;10.13;100.00
68793;BME280;55778;54.346;10.210;2023-05-21T02:52:38;101799.81;;;10.07;100.00
68793;BME280;55778;54.346;10.210;2023-05-21T02:55:04;101801.72;;;10.18;100.00
68793;BME280;55778;54.346;10.210;2023-05-21T02:57:29;101799.47;;;10.12;100.00
68793;BME280;55778;54.346;10.210;2023-05-21T02:59:54;101792.41;;;10.09;100.00
68793;BME280;55778;54.346;10.210;2023-05-21T03:02:20;101784.06;;;10.24;100.00
68793;BME280;55778;54.346;10.210;2023-05-21T03:04:45;101788.28;;;10.28;100.00
68793;BME280;55778;54.346;10.210;2023-05-21T03:07:13;101781.69;;;10.19;100.00
68793;BME280;55778;54.346;10.210;2023-05-21T03:09:40;101772.06;;;10.26;100.00
68793;BME280;55778;54.346;10.210;2023-05-21T03:12:06;101782.78;;;10.17;100.00
68793;BME280;55778;54.346;10.210;2023-05-21T03:14:32;101790.59;;;10.21;100.00
68793;BME280;55778;54.346;10.210;2023-05-21T03:16:58;101785.31;;;10.31;100.00
68793;BME280;55778;54.346;10.210;2023-05-21T03:19:23;101778.00;;;10.31;100.00
68793;BME280;55778;54.346;10.210;2023-05-21T03:21:49;101784.19;;;10.33;100.00
68793;BME280;55778;54.346;10.210;2023-05-21T03:24:15;101778.50;;;10.25;100.00
68793;BME280;55778;54.346;10.210;2023-05-21T03:26:40;101779.63;;;10.34;100.00
68793;BME280;55778;54.346;10.210;2023-05-21T03:29:05;101785.31;;;10.31;100.00
68793;BME280;55778;54.346;10.210;2023-05-21T03:31:31;101781.47;;;10.33;100.00
68793;BME280;55778;54.346;10.210;2023-05-21T03:33:56;101778.88;;;10.32;100.00
68793;BME280;55778;54.346;10.210;2023-05-21T03:36:21;101777.19;;;10.53;100.00
68793;BME280;55778;54.346;10.210;2023-05-21T03:38:47;101772.88;;;10.50;100.00
68793;BME280;55778;54.346;10.210;2023-05-21T03:41:12;101772.00;;;10.50;100.00
68793;BME280;55778;54.346;10.210;2023-05-21T03:43:37;101766.66;;;10.48;100.00
68793;BME280;55778;54.346;10.210;2023-05-21T03:46:03;101772.63;;;10.53;100.00
68793;BME280;55778;54.346;10.210;2023-05-21T03:48:28;101766.19;;;10.54;100.00
68793;BME280;55778;54.346;10.210;2023-05-21T03:50:54;101765.41;;;10.52;100.00
68793;BME280;55778;54.346;10.210;2023-05-21T03:53:19;101766.56;;;10.61;100.00
68793;BME280;55778;54.346;10.210;2023-05-21T03:55:45;101765.94;;;10.68;100.00
68793;BME280;55778;54.346;10.210;2023-05-21T03:58:11;101762.59;;;10.65;100.00
68793;BME280;55778;54.346;10.210;2023-05-21T04:00:36;101766.19;;;10.65;100.00
68793;BME280;55778;54.346;10.210;2023-05-21T04:03:05;101770.16;;;10.72;100.00
68793;BME280;55778;54.346;10.210;2023-05-21T04:05:33;101763.47;;;10.76;100.00
68793;BME280;55778;54.346;10.210;2023-05-21T04:07:58;101765.56;;;10.73;100.00
68793;BME280;55778;54.346;10.210;2023-05-21T04:10:24;101760.63;;;10.78;100.00
68793;BME280;55778;54.346;10.210;2023-05-21T04:12:51;101754.94;;;10.81;100.00
68793;BME280;55778;54.346;10.210;2023-05-21T04:15:19;101763.88;;;10.83;100.00
68793;BME280;55778;54.346;10.210;2023-05-21T04:17:45;101758.28;;;10.84;100.00
68793;BME280;55778;54.346;10.210;2023-05-21T04:20:12;101758.88;;;10.88;100.00
68793;BME280;55778;54.346;10.210;2023-05-21T04:22:47;101763.63;;;10.86;100.00
68793;BME280;55778;54.346;10.210;2023-05-21T04:25:12;101772.91;;;10.94;100.00
68793;BME280;55778;54.346;10.210;2023-05-21T04:27:38;101771.06;;;10.95;100.00
68793;BME280;55778;54.346;10.210;2023-05-21T04:30:03;101768.81;;;11.00;100.00
68793;BME280;55778;54.346;10.210;2023-05-21T04:32:30;101763.34;;;11.00;100.00
68793;BME280;55778;54.346;10.210;2023-05-21T04:34:57;101770.53;;;11.01;100.00
68793;BME280;55778;54.346;10.210;2023-05-21T04:37:28;101766.47;;;11.06;100.00
68793;BME280;55778;54.346;10.210;2023-05-21T04:39:54;101769.66;;;11.11;100.00
68793;BME280;55778;54.346;10.210;2023-05-21T04:42:19;101773.53;;;11.20;100.00
68793;BME280;55778;54.346;10.210;2023-05-21T04:44:48;101764.84;;;11.26;100.00
68793;BME280;55778;54.346;10.210;2023-05-21T04:47:14;101775.13;;;11.33;100.00
68793;BME280;55778;54.346;10.210;2023-05-21T04:49:39;101760.94;;;11.39;100.00
68793;BME280;55778;54.346;10.210;2023-05-21T04:52:04;101777.19;;;11.41;100.00
68793;BME280;55778;54.346;10.210;2023-05-21T04:54:30;101773.75;;;11.39;100.00
68793;BME280;55778;54.346;10.210;2023-05-21T04:56:55;101774.47;;;11.52;100.00
68793;BME280;55778;54.346;10.210;2023-05-21T04:59:22;101776.94;;;11.55;100.00
68793;BME280;55778;54.346;10.210;2023-05-21T05:01:47;101772.34;;;11.66;100.00
68793;BME280;55778;54.346;10.210;2023-05-21T05:04:13;101769.50;;;11.68;100.00
68793;BME280;55778;54.346;10.210;2023-05-21T05:06:38;101762.25;;;11.78;100.00
68793;BME280;55778;54.346;10.210;2023-05-21T05:09:03;101763.63;;;11.83;100.00
68793;BME280;55778;54.346;10.210;2023-05-21T05:11:29;101755.88;;;11.88;100.00
68793;BME280;55778;54.346;10.210;2023-05-21T05:13:54;101759.50;;;11.89;100.00
68793;BME280;55778;54.346;10.210;2023-05-21T05:16:20;101754.25;;;11.97;100.00
68793;BME280;55778;54.346;10.210;2023-05-21T05:18:52;101752.84;;;12.02;100.00
68793;BME280;55778;54.346;10.210;2023-05-21T05:21:17;101752.91;;;12.12;100.00
68793;BME280;55778;54.346;10.210;2023-05-21T05:23:43;101753.41;;;12.17;100.00
68793;BME280;55778;54.346;10.210;2023-05-21T05:26:09;101746.53;;;12.23;100.00
68793;BME280;55778;54.346;10.210;2023-05-21T05:28:35;101748.75;;;12.29;100.00
68793;BME280;55778;54.346;10.210;2023-05-21T05:31:00;101744.53;;;12.45;100.00
68793;BME280;55778;54.346;10.210;2023-05-21T05:33:26;101746.59;;;12.53;100.00
68793;BME280;55778;54.346;10.210;2023-05-21T05:35:51;101744.09;;;12.61;100.00
68793;BME280;55778;54.346;10.210;2023-05-21T05:38:17;101730.97;;;12.64;100.00
68793;BME280;55778;54.346;10.210;2023-05-21T05:40:42;101735.09;;;12.79;100.00
68793;BME280;55778;54.346;10.210;2023-05-21T05:43:07;101731.69;;;12.87;100.00
68793;BME280;55778;54.346;10.210;2023-05-21T05:45:33;101742.34;;;12.90;100.00
68793;BME280;55778;54.346;10.210;2023-05-21T05:47:58;101733.00;;;12.92;100.00
68793;BME280;55778;54.346;10.210;2023-05-21T05:50:23;101729.41;;;12.92;100.00
68793;BME280;55778;54.346;10.210;2023-05-21T05:52:49;101740.66;;;12.98;100.00
68793;BME280;55778;54.346;10.210;2023-05-21T05:55:15;101736.06;;;12.99;100.00
68793;BME280;55778;54.346;10.210;2023-05-21T05:57:40;101733.84;;;13.13;100.00
68793;BME280;55778;54.346;10.210;2023-05-21T06:00:06;101724.94;;;13.11;99.07
68793;BME280;55778;54.346;10.210;2023-05-21T06:02:34;101732.28;;;13.20;99.32
68793;BME280;55778;54.346;10.210;2023-05-21T06:05:00;101731.00;;;13.24;98.85
68793;BME280;55778;54.346;10.210;2023-05-21T06:07:27;101728.41;;;13.23;99.25
68793;BME280;55778;54.346;10.210;2023-05-21T06:09:53;101724.56;;;13.44;99.06
68793;BME280;55778;54.346;10.210;2023-05-21T06:12:18;101719.25;;;13.62;98.11
68793;BME280;55778;54.346;10.210;2023-05-21T06:14:43;101715.81;;;13.60;98.20
68793;BME280;55778;54.346;10.210;2023-05-21T06:17:11;101708.63;;;13.78;96.79
68793;BME280;55778;54.346;10.210;2023-05-21T06:19:36;101715.69;;;13.80;96.42
68793;BME280;55778;54.346;10.210;2023-05-21T06:22:02;101724.06;;;13.88;96.99
68793;BME280;55778;54.346;10.210;2023-05-21T06:24:27;101720.72;;;13.94;95.73
68793;BME280;55778;54.346;10.210;2023-05-21T06:26:52;101720.44;;;13.97;95.45
68793;BME280;55778;54.346;10.210;2023-05-21T06:29:18;101730.25;;;14.09;95.02
68793;BME280;55778;54.346;10.210;2023-05-21T06:31:43;101739.94;;;14.14;94.18
68793;BME280;55778;54.346;10.210;2023-05-21T06:34:09;101730.09;;;14.11;94.43
68793;BME280;55778;54.346;10.210;2023-05-21T06:36:36;101731.56;;;14.25;94.29
68793;BME280;55778;54.346;10.210;2023-05-21T06:39:01;101728.53;;;14.28;93.69
68793;BME280;55778;54.346;10.210;2023-05-21T06:41:27;101726.94;;;14.35;94.03
68793;BME280;55778;54.346;10.210;2023-05-21T06:43:52;101734.47;;;14.33;93.81
68793;BME280;55778;54.346;10.210;2023-05-21T06:46:18;101731.97;;;14.39;94.33
68793;BME280;55778;54.346;10.210;2023-05-21T06:48:43;101735.44;;;14.51;93.93
68793;BME280;55778;54.346;10.210;2023-05-21T06:51:10;101736.72;;;14.66;93.35
68793;BME280;55778;54.346;10.210;2023-05-21T06:53:35;101738.97;;;14.80;92.41
68793;BME280;55778;54.346;10.210;2023-05-21T06:56:01;101731.47;;;14.82;91.37
68793;BME280;55778;54.346;10.210;2023-05-21T06:58:26;101727.84;;;14.72;91.43
68793;BME280;55778;54.346;10.210;2023-05-21T07:00:58;101736.53;;;14.77;91.25
68793;BME280;55778;54.346;10.210;2023-05-21T07:03:24;101736.38;;;14.69;91.82
68793;BME280;55778;54.346;10.210;2023-05-21T07:05:49;101735.41;;;14.70;91.18
68793;BME280;55778;54.346;10.210;2023-05-21T07:08:15;101732.88;;;14.86;91.27
68793;BME280;55778;54.346;10.210;2023-05-21T07:10:41;101737.50;;;14.85;90.11
68793;BME280;55778;54.346;10.210;2023-05-21T07:13:06;101731.47;;;14.82;90.12
68793;BME280;55778;54.346;10.210;2023-05-21T07:15:31;101730.88;;;14.78;90.73
68793;BME280;55778;54.346;10.210;2023-05-21T07:17:57;101728.72;;;14.82;90.58
68793;BME280;55778;54.346;10.210;2023-05-21T07:20:22;101732.72;;;14.87;90.55
68793;BME280;55778;54.346;10.210;2023-05-21T07:22:48;101733.84;;;14.94;89.72
68793;BME280;55778;54.346;10.210;2023-05-21T07:25:13;101728.97;;;14.88;89.70
68793;BME280;55778;54.346;10.210;2023-05-21T07:27:38;101726.19;;;14.98;89.42
68793;BME280;55778;54.346;10.210;2023-05-21T07:30:04;101724.84;;;15.11;89.64
68793;BME280;55778;54.346;10.210;2023-05-21T07:32:30;101726.53;;;15.22;88.39
68793;BME280;55778;54.346;10.210;2023-05-21T07:34:55;101716.53;;;15.21;88.13
68793;BME280;55778;54.346;10.210;2023-05-21T07:37:21;101722.78;;;15.13;88.96
68793;BME280;55778;54.346;10.210;2023-05-21T07:39:46;101731.72;;;15.25;89.16
68793;BME280;55778;54.346;10.210;2023-05-21T07:42:11;101729.19;;;15.41;87.59
68793;BME280;55778;54.346;10.210;2023-05-21T07:44:37;101717.28;;;15.50;87.53
68793;BME280;55778;54.346;10.210;2023-05-21T07:47:02;101723.84;;;15.66;87.21
68793;BME280;55778;54.346;10.210;2023-05-21T07:49:28;101713.78;;;15.92;86.48
68793;BME280;55778;54.346;10.210;2023-05-21T07:51:54;101716.22;;;15.95;85.95
68793;BME280;55778;54.346;10.210;2023-05-21T07:54:19;101711.31;;;16.42;82.96
68793;BME280;55778;54.346;10.210;2023-05-21T07:56:45;101710.09;;;16.62;82.66
68793;BME280;55778;54.346;10.210;2023-05-21T07:59:10;101713.19;;;16.85;80.95
68793;BME280;55778;54.346;10.210;2023-05-21T08:01:35;101718.06;;;17.32;79.55
68793;BME280;55778;54.346;10.210;2023-05-21T08:04:01;101711.25;;;17.52;78.24
68793;BME280;55778;54.346;10.210;2023-05-21T08:06:31;101710.94;;;17.47;76.92
68793;BME280;55778;54.346;10.210;2023-05-21T08:08:59;101711.19;;;17.36;78.24
68793;BME280;55778;54.346;10.210;2023-05-21T08:11:26;101715.41;;;17.15;78.89
68793;BME280;55778;54.346;10.210;2023-05-21T08:13:51;101720.25;;;17.21;78.59
68793;BME280;55778;54.346;10.210;2023-05-21T08:16:17;101721.09;;;17.13;78.84
68793;BME280;55778;54.346;10.210;2023-05-21T08:18:42;101719.34;;;17.12;80.29
68793;BME280;55778;54.346;10.210;2023-05-21T08:21:09;101717.09;;;17.49;79.63
68793;BME280;55778;54.346;10.210;2023-05-21T08:23:34;101702.56;;;17.81;77.10
68793;BME280;55778;54.346;10.210;2023-05-21T08:25:59;101713.06;;;17.85;77.51
68793;BME280;55778;54.346;10.210;2023-05-21T08:28:25;101710.84;;;18.13;76.31
68793;BME280;55778;54.346;10.210;2023-05-21T08:30:53;101706.22;;;18.14;75.56
68793;BME280;55778;54.346;10.210;2023-05-21T08:33:18;101713.13;;;18.26;75.45
68793;BME280;55778;54.346;10.210;2023-05-21T08:35:44;101713.31;;;18.48;74.11
68793;BME280;55778;54.346;10.210;2023-05-21T08:38:10;101715.19;;;18.32;75.51
68793;BME280;55778;54.346;10.210;2023-05-21T08:40:35;101719.38;;;18.44;75.18
68793;BME280;55778;54.346;10.210;2023-05-21T08:43:01;101716.75;;;18.50;74.50
68793;BME280;55778;54.346;10.210;2023-05-21T08:45:30;101719.84;;;18.71;74.35
68793;BME280;55778;54.346;10.210;2023-05-21T08:48:01;101720.53;;;18.73;73.41
68793;BME280;55778;54.346;10.210;2023-05-21T08:50:27;101717.47;;;18.60;73.95
68793;BME280;55778;54.346;10.210;2023-05-21T08:52:53;101715.53;;;18.29;74.62
68793;BME280;55778;54.346;10.210;2023-05-21T08:55:20;101704.34;;;18.14;75.44
68793;BME280;55778;54.346;10.210;2023-05-21T08:57:46;101701.88;;;18.03;75.72
68793;BME280;55778;54.346;10.210;2023-05-21T09:00:13;101712.75;;;18.05;77.38
68793;BME280;55778;54.346;10.210;2023-05-21T09:02:38;101705.38;;;18.29;75.86
68793;BME280;55778;54.346;10.210;2023-05-21T09:05:08;101703.31;;;18.23;75.80
68793;BME280;55778;54.346;10.210;2023-05-21T09:07:54;101700.88;;;18.28;76.46
68793;BME280;55778;54.346;10.210;2023-05-21T09:10:23;101702.44;;;18.39;75.33
68793;BME280;55778;54.346;10.210;2023-05-21T09:12:51;101695.38;;;18.52;74.54
68793;BME280;55778;54.346;10.210;2023-05-21T09:15:16;101701.22;;;18.33;75.26
68793;BME280;55778;54.346;10.210;2023-05-21T09:17:45;101698.78;;;18.22;76.06
68793;BME280;55778;54.346;10.210;2023-05-21T09:20:14;101695.69;;;18.09;76.30
68793;BME280;55778;54.346;10.210;2023-05-21T09:22:47;101707.22;;;17.88;76.94
68793;BME280;55778;54.346;10.210;2023-05-21T09:25:19;101702.78;;;18.20;76.71
68793;BME280;55778;54.346;10.210;2023-05-21T09:27:46;101697.75;;;18.31;76.80
68793;BME280;55778;54.346;10.210;2023-05-21T09:30:15;101691.19;;;18.16;76.01
68793;BME280;55778;54.346;10.210;2023-05-21T09:32:42;101698.44;;;18.25;75.42
68793;BME280;55778;54.346;10.210;2023-05-21T09:35:09;101699.66;;;18.15;75.31
68793;BME280;55778;54.346;10.210;2023-05-21T09:37:41;101695.69;;;18.09;75.88
68793;BME280;55778;54.346;10.210;2023-05-21T09:40:11;101700.69;;;18.06;76.28
68793;BME280;55778;54.346;10.210;2023-05-21T09:42:39;101700.34;;;17.84;76.58
68793;BME280;55778;54.346;10.210;2023-05-21T09:45:09;101701.69;;;17.80;78.12
68793;BME280;55778;54.346;10.210;2023-05-21T09:47:41;101690.88;;;17.95;77.31
68793;BME280;55778;54.346;10.210;2023-05-21T09:50:12;101698.78;;;17.98;77.70
68793;BME280;55778;54.346;10.210;2023-05-21T09:52:41;101701.56;;;18.06;77.02
68793;BME280;55778;54.346;10.210;2023-05-21T09:55:09;101692.75;;;18.11;76.63
68793;BME280;55778;54.346;10.210;2023-05-21T09:57:46;101701.22;;;18.17;75.33
68793;BME280;55778;54.346;10.210;2023-05-21T10:00:23;101692.41;;;18.14;76.09
68793;BME280;55778;54.346;10.210;2023-05-21T10:02:52;101695.72;;;18.17;76.25
68793;BME280;55778;54.346;10.210;2023-05-21T10:05:18;101693.78;;;18.18;76.08
68793;BME280;55778;54.346;10.210;2023-05-21T10:08:01;101697.44;;;18.58;75.96
68793;BME280;55778;54.346;10.210;2023-05-21T10:10:31;101694.50;;;18.60;75.53
68793;BME280;55778;54.346;10.210;2023-05-21T10:13:03;101699.28;;;18.74;73.62
68793;BME280;55778;54.346;10.210;2023-05-21T10:15:40;101693.69;;;18.98;73.88
68793;BME280;55778;54.346;10.210;2023-05-21T10:18:09;101688.03;;;19.38;71.35
68793;BME280;55778;54.346;10.210;2023-05-21T10:20:36;101689.00;;;19.53;71.40
68793;BME280;55778;54.346;10.210;2023-05-21T10:23:02;101686.91;;;19.86;70.42
68793;BME280;55778;54.346;10.210;2023-05-21T10:25:27;101690.44;;;20.25;69.81
68793;BME280;55778;54.346;10.210;2023-05-21T10:27:54;101678.69;;;20.74;67.16
68793;BME280;55778;54.346;10.210;2023-05-21T10:30:20;101685.06;;;20.97;66.89
68793;BME280;55778;54.346;10.210;2023-05-21T10:32:46;101675.09;;;20.74;64.62
68793;BME280;55778;54.346;10.210;2023-05-21T10:35:14;101672.56;;;20.50;65.71
68793;BME280;55778;54.346;10.210;2023-05-21T10:37:42;101666.13;;;20.35;66.68
68793;BME280;55778;54.346;10.210;2023-05-21T10:40:08;101671.91;;;20.25;67.18
68793;BME280;55778;54.346;10.210;2023-05-21T10:46:08;101667.56;;;20.31;68.46
68793;BME280;55778;54.346;10.210;2023-05-21T10:51:17;101660.38;;;20.22;68.26
68793;BME280;55778;54.346;10.210;2023-05-21T10:59:30;101661.94;;;20.39;67.48
68793;BME280;55778;54.346;10.210;2023-05-21T11:02:00;101652.97;;;20.37;67.61
68793;BME280;55778;54.346;10.210;2023-05-21T11:04:26;101656.50;;;20.45;67.28
68793;BME280;55778;54.346;10.210;2023-05-21T11:06:52;101660.56;;;20.20;68.20
68793;BME280;55778;54.346;10.210;2023-05-21T11:09:17;101656.28;;;20.10;68.59
68793;BME280;55778;54.346;10.210;2023-05-21T11:11:44;101660.53;;;20.43;67.59
68793;BME280;55778;54.346;10.210;2023-05-21T11:16:50;101654.38;;;20.10;68.87
68793;BME280;55778;54.346;10.210;2023-05-21T11:19:16;101651.44;;;20.12;67.96
68793;BME280;55778;54.346;10.210;2023-05-21T11:21:42;101653.09;;;20.21;68.24
68793;BME280;55778;54.346;10.210;2023-05-21T11:24:07;101651.03;;;20.37;67.08
68793;BME280;55778;54.346;10.210;2023-05-21T11:29:12;101648.16;;;19.86;68.01
68793;BME280;55778;54.346;10.210;2023-05-21T11:31:44;101645.81;;;19.97;67.98
68793;BME280;55778;54.346;10.210;2023-05-21T11:34:23;101642.81;;;20.07;67.62
68793;BME280;55778;54.346;10.210;2023-05-21T11:39:41;101644.88;;;20.79;66.06
68793;BME280;55778;54.346;10.210;2023-05-21T11:42:07;101636.22;;;21.11;65.23
68793;BME280;55778;54.346;10.210;2023-05-21T11:47:05;101629.78;;;21.60;62.65
68793;BME280;55778;54.346;10.210;2023-05-21T11:49:31;101637.50;;;21.80;61.69
68793;BME280;55778;54.346;10.210;2023-05-21T11:51:59;101629.19;;;21.65;62.54
68793;BME280;55778;54.346;10.210;2023-05-21T11:54:24;101628.94;;;21.75;62.20
68793;BME280;55778;54.346;10.210;2023-05-21T11:56:51;101627.28;;;21.80;61.99
68793;BME280;55778;54.346;10.210;2023-05-21T11:59:18;101636.78;;;22.13;61.39
68793;BME280;55778;54.346;10.210;2023-05-21T12:01:43;101636.00;;;21.98;61.21
68793;BME280;55778;54.346;10.210;2023-05-21T12:04:09;101624.69;;;22.00;62.15
68793;BME280;55778;54.346;10.210;2023-05-21T12:06:41;101638.09;;;22.17;62.07
68793;BME280;55778;54.346;10.210;2023-05-21T12:09:10;101622.41;;;22.31;61.27
68793;BME280;55778;54.346;10.210;2023-05-21T12:11:40;101623.81;;;22.48;60.81
68793;BME280;55778;54.346;10.210;2023-05-21T12:14:12;101622.97;;;22.75;60.88
68793;BME280;55778;54.346;10.210;2023-05-21T12:16:38;101619.75;;;23.05;59.04
68793;BME280;55778;54.346;10.210;2023-05-21T12:19:05;101617.19;;;23.04;59.65
68793;BME280;55778;54.346;10.210;2023-05-21T12:21:30;101608.66;;;23.12;59.00
68793;BME280;55778;54.346;10.210;2023-05-21T12:23:56;101605.66;;;23.54;59.34
68793;BME280;55778;54.346;10.210;2023-05-21T12:26:23;101606.97;;;23.84;58.18
68793;BME280;55778;54.346;10.210;2023-05-21T12:28:55;101600.13;;;23.93;57.31
68793;BME280;55778;54.346;10.210;2023-05-21T12:31:22;101598.00;;;23.82;57.72
68793;BME280;55778;54.346;10.210;2023-05-21T12:33:48;101597.78;;;23.90;56.78
68793;BME280;55778;54.346;10.210;2023-05-21T12:36:29;101600.63;;;24.29;56.36
68793;BME280;55778;54.346;10.210;2023-05-21T12:38:56;101597.84;;;24.03;56.56
68793;BME280;55778;54.346;10.210;2023-05-21T12:41:22;101596.75;;;23.98;56.67
68793;BME280;55778;54.346;10.210;2023-05-21T12:43:49;101598.88;;;23.83;57.68
68793;BME280;55778;54.346;10.210;2023-05-21T12:46:15;101607.47;;;24.01;58.47
68793;BME280;55778;54.346;10.210;2023-05-21T12:48:51;101602.13;;;24.12;56.42
68793;BME280;55778;54.346;10.210;2023-05-21T12:51:17;101605.56;;;24.21;56.41
68793;BME280;55778;54.346;10.210;2023-05-21T12:53:42;101592.47;;;24.21;57.05
68793;BME280;55778;54.346;10.210;2023-05-21T12:58:34;101597.00;;;24.22;55.92
68793;BME280;55778;54.346;10.210;2023-05-21T13:00:59;101593.97;;;23.98;56.24
68793;BME280;55778;54.346;10.210;2023-05-21T13:03:25;101610.00;;;23.83;56.77